sensor_id;sensor_type;location;lat;lon;timestamp;pressure;altitude;pressure_sealevel;temperature;humidity
29549;BME280;16487;53.094;8.800;2023-03-30T00:00:39;100706.41;;;10.04;100.00
29549;BME280;16487;53.094;8.800;2023-03-30T00:03:09;100690.84;;;10.07;100.00
29549;BME280;16487;53.094;8.800;2023-03-30T00:05:36;100686.16;;;10.04;100.00
29549;BME280;16487;53.094;8.800;2023-03-30T00:08:04;100686.16;;;10.04;100.00
29549;BME280;16487;53.094;8.800;2023-03-30T00:10:31;100674.13;;;10.07;100.00
29549;BME280;16487;53.094;8.800;2023-03-30T00:12:58;100674.22;;;10.03;100.00
29549;BME280;16487;53.094;8.800;2023-03-30T00:15:25;100661.56;;;10.02;100.00
29549;BME280;16487;53.094;8.800;2023-03-30T00:17:53;100648.03;;;10.01;100.00
29549;BME280;16487;53.094;8.800;2023-03-30T00:20:21;100653.72;;;9.97;100.00
29549;BME280;16487;53.094;8.800;2023-03-30T00:22:49;100646.50;;;10.00;100.00
29549;BME280;16487;53.094;8.800;2023-03-30T00:25:17;100653.63;;;10.01;100.00
29549;BME280;16487;53.094;8.800;2023-03-30T00:27:44;100658.41;;;10.00;100.00
29549;BME280;16487;53.094;8.800;2023-03-30T00:30:17;100650.50;;;9.99;100.00
29549;BME280;16487;53.094;8.800;2023-03-30T00:32:45;100641.81;;;9.97;100.00
29549;BME280;16487;53.094;8.800;2023-03-30T00:35:12;100654.50;;;9.98;100.00
29549;BME280;16487;53.094;8.800;2023-03-30T00:37:41;100648.94;;;9.98;100.00
29549;BME280;16487;53.094;8.800;2023-03-30T00:40:14;100650.50;;;9.99;100.00
29549;BME280;16487;53.094;8.800;2023-03-30T00:42:42;100637.47;;;9.96;100.00
29549;BME280;16487;53.094;8.800;2023-03-30T00:45:24;100633.56;;;9.93;100.00
29549;BME280;16487;53.094;8.800;2023-03-30T00:47:56;100625.47;;;9.99;100.00
29549;BME280;16487;53.094;8.800;2023-03-30T00:50:27;100618.06;;;9.92;100.00
29549;BME280;16487;53.094;8.800;2023-03-30T00:52:57;100612.59;;;9.89;100.00
29549;BME280;16487;53.094;8.800;2023-03-30T00:55:26;100613.06;;;9.87;100.00
29549;BME280;16487;53.094;8.800;2023-03-30T00:57:55;100607.59;;;9.84;100.00
29549;BME280;16487;53.094;8.800;2023-03-30T01:00:22;100605.69;;;9.81;100.00
29549;BME280;16487;53.094;8.800;2023-03-30T01:02:53;100611.81;;;9.76;100.00
29549;BME280;16487;53.094;8.800;2023-03-30T01:05:23;100604.13;;;9.80;100.00
29549;BME280;16487;53.094;8.800;2023-03-30T01:07:51;100610.16;;;9.78;100.00
29549;BME280;16487;53.094;8.800;2023-03-30T01:10:20;100609.38;;;9.78;100.00
29549;BME280;16487;53.094;8.800;2023-03-30T01:12:47;100604.13;;;9.80;100.00
29549;BME280;16487;53.094;8.800;2023-03-30T01:15:15;100601.81;;;9.78;100.00
29549;BME280;16487;53.094;8.800;2023-03-30T01:20:55;100581.28;;;9.72;100.00
29549;BME280;16487;53.094;8.800;2023-03-30T01:23:41;100583.28;;;9.72;100.00
29549;BME280;16487;53.094;8.800;2023-03-30T01:26:34;100557.91;;;9.70;100.00
29549;BME280;16487;53.094;8.800;2023-03-30T01:29:11;100559.69;;;9.64;100.00
29549;BME280;16487;53.094;8.800;2023-03-30T01:35:16;100547.31;;;9.65;100.00
29549;BME280;16487;53.094;8.800;2023-03-30T01:38:07;100538.97;;;9.65;100.00
29549;BME280;16487;53.094;8.800;2023-03-30T01:40:43;100544.97;;;9.63;100.00
29549;BME280;16487;53.094;8.800;2023-03-30T01:43:17;100544.19;;;9.63;100.00
29549;BME280;16487;53.094;8.800;2023-03-30T01:45:50;100542.44;;;9.69;100.00
29549;BME280;16487;53.094;8.800;2023-03-30T01:48:24;100532.00;;;9.73;100.00
29549;BME280;16487;53.094;8.800;2023-03-30T01:50:56;100512.97;;;9.71;100.00
29549;BME280;16487;53.094;8.800;2023-03-30T01:53:29;100507.28;;;9.75;100.00
29549;BME280;16487;53.094;8.800;2023-03-30T01:56:03;100490.34;;;9.82;100.00
29549;BME280;16487;53.094;8.800;2023-03-30T01:58:34;100459.88;;;9.78;100.00
29549;BME280;16487;53.094;8.800;2023-03-30T02:01:04;100444.38;;;9.77;100.00
29549;BME280;16487;53.094;8.800;2023-03-30T02:03:36;100428.47;;;9.78;100.00
29549;BME280;16487;53.094;8.800;2023-03-30T02:06:08;100401.44;;;9.78;100.00
29549;BME280;16487;53.094;8.800;2023-03-30T02:08:38;100393.38;;;9.80;100.00
29549;BME280;16487;53.094;8.800;2023-03-30T02:11:08;100374.25;;;9.82;100.00
29549;BME280;16487;53.094;8.800;2023-03-30T02:13:36;100355.56;;;9.83;100.00
29549;BME280;16487;53.094;8.800;2023-03-30T02:16:09;100333.63;;;9.85;100.00
29549;BME280;16487;53.094;8.800;2023-03-30T02:18:43;100305.78;;;9.85;100.00
29549;BME280;16487;53.094;8.800;2023-03-30T02:21:10;100290.97;;;9.88;100.00
29549;BME280;16487;53.094;8.800;2023-03-30T02:23:41;100274.94;;;9.92;100.00
29549;BME280;16487;53.094;8.800;2023-03-30T02:26:11;100249.22;;;9.88;100.00
29549;BME280;16487;53.094;8.800;2023-03-30T02:28:39;100218.94;;;9.90;100.00
29549;BME280;16487;53.094;8.800;2023-03-30T02:31:09;100205.34;;;9.92;100.00
29549;BME280;16487;53.094;8.800;2023-03-30T02:33:46;100178.72;;;9.91;100.00
29549;BME280;16487;53.094;8.800;2023-03-30T02:36:30;100155.56;;;9.94;100.00
29549;BME280;16487;53.094;8.800;2023-03-30T02:39:15;100136.09;;;9.94;100.00
29549;BME280;16487;53.094;8.800;2023-03-30T02:42:14;100109.00;;;9.94;100.00
29549;BME280;16487;53.094;8.800;2023-03-30T02:44:58;100092.31;;;9.94;100.00
29549;BME280;16487;53.094;8.800;2023-03-30T02:47:36;100084.41;;;9.93;100.00
29549;BME280;16487;53.094;8.800;2023-03-30T02:50:12;100064.94;;;9.93;100.00
29549;BME280;16487;53.094;8.800;2023-03-30T02:52:51;100046.56;;;9.95;100.00
29549;BME280;16487;53.094;8.800;2023-03-30T02:55:24;100030.03;;;10.01;100.00
29549;BME280;16487;53.094;8.800;2023-03-30T02:58:13;100017.06;;;10.07;100.00
29549;BME280;16487;53.094;8.800;2023-03-30T03:01:01;99996.19;;;10.02;100.00
29549;BME280;16487;53.094;8.800;2023-03-30T03:03:42;99973.44;;;10.04;100.00
29549;BME280;16487;53.094;8.800;2023-03-30T03:06:10;99960.91;;;9.99;100.00
29549;BME280;16487;53.094;8.800;2023-03-30T03:08:44;99948.03;;;9.93;100.00
29549;BME280;16487;53.094;8.800;2023-03-30T03:11:14;99940.75;;;9.86;100.00
29549;BME280;16487;53.094;8.800;2023-03-30T03:13:42;99932.41;;;9.86;100.00
29549;BME280;16487;53.094;8.800;2023-03-30T03:16:11;99921.09;;;9.81;100.00
29549;BME280;16487;53.094;8.800;2023-03-30T03:18:48;99914.13;;;9.76;100.00
29549;BME280;16487;53.094;8.800;2023-03-30T03:21:16;99912.41;;;9.79;100.00
29549;BME280;16487;53.094;8.800;2023-03-30T03:23:43;99912.16;;;9.86;100.00
29549;BME280;16487;53.094;8.800;2023-03-30T03:26:11;99898.25;;;9.95;100.00
29549;BME280;16487;53.094;8.800;2023-03-30T03:28:38;99893.63;;;10.01;100.00
29549;BME280;16487;53.094;8.800;2023-03-30T03:31:08;99880.63;;;9.98;100.00
29549;BME280;16487;53.094;8.800;2023-03-30T03:33:36;99874.47;;;10.03;100.00
29549;BME280;16487;53.094;8.800;2023-03-30T03:36:13;99865.84;;;10.10;100.00
29549;BME280;16487;53.094;8.800;2023-03-30T03:38:46;99848.38;;;10.09;100.00
29549;BME280;16487;53.094;8.800;2023-03-30T03:41:15;99839.28;;;10.18;100.00
29549;BME280;16487;53.094;8.800;2023-03-30T03:43:43;99829.66;;;10.19;100.00
29549;BME280;16487;53.094;8.800;2023-03-30T03:46:12;99813.91;;;10.25;100.00
29549;BME280;16487;53.094;8.800;2023-03-30T03:48:41;99799.66;;;10.32;100.00
29549;BME280;16487;53.094;8.800;2023-03-30T03:51:08;99778.63;;;10.40;100.00
29549;BME280;16487;53.094;8.800;2023-03-30T03:53:35;99757.88;;;10.41;100.00
29549;BME280;16487;53.094;8.800;2023-03-30T03:56:07;99752.78;;;10.49;100.00
29549;BME280;16487;53.094;8.800;2023-03-30T03:58:35;99728.44;;;10.58;100.00
29549;BME280;16487;53.094;8.800;2023-03-30T04:01:02;99723.50;;;10.62;100.00
29549;BME280;16487;53.094;8.800;2023-03-30T04:03:32;99705.66;;;10.69;100.00
29549;BME280;16487;53.094;8.800;2023-03-30T04:06:00;99680.88;;;10.71;100.00
29549;BME280;16487;53.094;8.800;2023-03-30T04:08:28;99657.47;;;10.77;100.00
29549;BME280;16487;53.094;8.800;2023-03-30T04:11:05;99636.66;;;10.96;100.00
29549;BME280;16487;53.094;8.800;2023-03-30T04:13:48;99608.38;;;11.12;100.00
29549;BME280;16487;53.094;8.800;2023-03-30T04:16:38;99562.03;;;11.15;100.00
29549;BME280;16487;53.094;8.800;2023-03-30T04:19:26;99542.78;;;11.17;100.00
29549;BME280;16487;53.094;8.800;2023-03-30T04:22:03;99507.84;;;11.30;100.00
29549;BME280;16487;53.094;8.800;2023-03-30T04:24:55;99489.25;;;11.13;100.00
29549;BME280;16487;53.094;8.800;2023-03-30T04:27:41;99474.91;;;11.05;100.00
29549;BME280;16487;53.094;8.800;2023-03-30T04:30:25;99469.00;;;10.89;100.00
29549;BME280;16487;53.094;8.800;2023-03-30T04:33:31;99477.75;;;10.96;100.00
29549;BME280;16487;53.094;8.800;2023-03-30T04:36:34;99487.44;;;11.10;100.00
29549;BME280;16487;53.094;8.800;2023-03-30T04:39:24;99479.25;;;11.06;100.00
29549;BME280;16487;53.094;8.800;2023-03-30T04:42:12;99487.59;;;11.06;100.00
29549;BME280;16487;53.094;8.800;2023-03-30T04:44:58;99484.44;;;11.13;100.00
29549;BME280;16487;53.094;8.800;2023-03-30T04:47:44;99471.38;;;11.19;100.00
29549;BME280;16487;53.094;8.800;2023-03-30T04:50:24;99468.59;;;11.19;100.00
29549;BME280;16487;53.094;8.800;2023-03-30T04:53:11;99452.94;;;11.22;100.00
29549;BME280;16487;53.094;8.800;2023-03-30T04:55:57;99435.13;;;11.19;100.00
29549;BME280;16487;53.094;8.800;2023-03-30T04:58:54;99431.25;;;11.17;100.00
29549;BME280;16487;53.094;8.800;2023-03-30T05:01:24;99427.53;;;11.20;100.00
29549;BME280;16487;53.094;8.800;2023-03-30T05:04:21;99413.00;;;11.16;100.00
29549;BME280;16487;53.094;8.800;2023-03-30T05:07:07;99409.44;;;11.15;100.00
29549;BME280;16487;53.094;8.800;2023-03-30T05:09:51;99405.97;;;11.20;100.00
29549;BME280;16487;53.094;8.800;2023-03-30T05:12:52;99403.84;;;11.15;100.00
29549;BME280;16487;53.094;8.800;2023-03-30T05:15:35;99396.38;;;11.21;100.00
29549;BME280;16487;53.094;8.800;2023-03-30T05:18:25;99378.69;;;11.24;100.00
29549;BME280;16487;53.094;8.800;2023-03-30T05:21:13;99361.16;;;11.38;100.00
29549;BME280;16487;53.094;8.800;2023-03-30T05:24:06;99344.03;;;11.45;100.00
29549;BME280;16487;53.094;8.800;2023-03-30T05:27:01;99325.00;;;11.44;100.00
29549;BME280;16487;53.094;8.800;2023-03-30T05:29:47;99308.16;;;11.53;100.00
29549;BME280;16487;53.094;8.800;2023-03-30T05:32:40;99284.56;;;11.69;100.00
29549;BME280;16487;53.094;8.800;2023-03-30T05:35:25;99268.47;;;11.78;100.00
29549;BME280;16487;53.094;8.800;2023-03-30T05:38:04;99248.72;;;11.82;100.00
29549;BME280;16487;53.094;8.800;2023-03-30T05:40:44;99253.47;;;11.96;100.00
29549;BME280;16487;53.094;8.800;2023-03-30T05:43:21;99238.66;;;11.90;100.00
29549;BME280;16487;53.094;8.800;2023-03-30T05:46:00;99234.94;;;11.98;100.00
29549;BME280;16487;53.094;8.800;2023-03-30T05:48:48;99226.22;;;12.11;100.00
29549;BME280;16487;53.094;8.800;2023-03-30T05:51:39;99211.84;;;12.18;100.00
29549;BME280;16487;53.094;8.800;2023-03-30T05:54:12;99202.31;;;12.30;100.00
29549;BME280;16487;53.094;8.800;2023-03-30T05:56:43;99202.75;;;12.23;100.00
29549;BME280;16487;53.094;8.800;2023-03-30T05:59:22;99198.53;;;12.33;100.00
29549;BME280;16487;53.094;8.800;2023-03-30T06:01:59;99199.63;;;12.41;100.00
29549;BME280;16487;53.094;8.800;2023-03-30T06:04:27;99204.44;;;12.40;100.00
29549;BME280;16487;53.094;8.800;2023-03-30T06:06:54;99212.69;;;12.49;100.00
29549;BME280;16487;53.094;8.800;2023-03-30T06:09:21;99206.31;;;12.49;100.00
29549;BME280;16487;53.094;8.800;2023-03-30T06:11:49;99186.75;;;12.49;100.00
29549;BME280;16487;53.094;8.800;2023-03-30T06:14:19;99185.13;;;12.37;100.00
29549;BME280;16487;53.094;8.800;2023-03-30T06:17:08;99182.59;;;12.39;100.00
29549;BME280;16487;53.094;8.800;2023-03-30T06:19:35;99190.19;;;12.38;100.00
29549;BME280;16487;53.094;8.800;2023-03-30T06:22:02;99187.03;;;12.51;100.00
29549;BME280;16487;53.094;8.800;2023-03-30T06:24:41;99187.16;;;12.62;100.00
29549;BME280;16487;53.094;8.800;2023-03-30T06:27:09;99190.75;;;12.68;100.00
29549;BME280;16487;53.094;8.800;2023-03-30T06:29:36;99194.44;;;12.85;100.00
29549;BME280;16487;53.094;8.800;2023-03-30T06:32:04;99192.91;;;12.84;100.00
29549;BME280;16487;53.094;8.800;2023-03-30T06:34:39;99204.72;;;12.99;100.00
29549;BME280;16487;53.094;8.800;2023-03-30T06:37:06;99202.53;;;12.83;100.00
29549;BME280;16487;53.094;8.800;2023-03-30T06:39:34;99205.94;;;12.61;100.00
29549;BME280;16487;53.094;8.800;2023-03-30T06:42:02;99198.91;;;12.72;100.00
29549;BME280;16487;53.094;8.800;2023-03-30T06:44:38;99198.28;;;12.88;100.00
29549;BME280;16487;53.094;8.800;2023-03-30T06:47:11;99201.66;;;12.97;100.00
29549;BME280;16487;53.094;8.800;2023-03-30T06:49:39;99199.75;;;13.09;100.00
29549;BME280;16487;53.094;8.800;2023-03-30T06:52:28;99199.13;;;13.30;100.00
29549;BME280;16487;53.094;8.800;2023-03-30T06:54:56;99198.47;;;13.46;100.00
29549;BME280;16487;53.094;8.800;2023-03-30T06:57:23;99195.97;;;13.54;100.00
29549;BME280;16487;53.094;8.800;2023-03-30T06:59:50;99185.88;;;13.73;100.00
29549;BME280;16487;53.094;8.800;2023-03-30T07:02:20;99185.84;;;13.67;100.00
29549;BME280;16487;53.094;8.800;2023-03-30T07:05:27;99183.31;;;13.69;100.00
29549;BME280;16487;53.094;8.800;2023-03-30T07:08:07;99190.25;;;13.85;100.00
29549;BME280;16487;53.094;8.800;2023-03-30T07:10:37;99185.84;;;13.67;100.00
29549;BME280;16487;53.094;8.800;2023-03-30T07:13:07;99202.16;;;13.74;100.00
29549;BME280;16487;53.094;8.800;2023-03-30T07:15:36;99198.91;;;13.93;100.00
29549;BME280;16487;53.094;8.800;2023-03-30T07:18:03;99201.97;;;13.89;100.00
29549;BME280;16487;53.094;8.800;2023-03-30T07:20:32;99194.84;;;13.88;100.00
29549;BME280;16487;53.094;8.800;2023-03-30T07:23:20;99205.56;;;13.95;100.00
29549;BME280;16487;53.094;8.800;2023-03-30T07:25:49;99202.25;;;13.97;100.00
29549;BME280;16487;53.094;8.800;2023-03-30T07:28:22;99197.44;;;14.08;100.00
29549;BME280;16487;53.094;8.800;2023-03-30T07:30:50;99209.84;;;13.91;100.00
29549;BME280;16487;53.094;8.800;2023-03-30T07:33:18;99205.09;;;14.02;100.00
29549;BME280;16487;53.094;8.800;2023-03-30T07:35:47;99206.06;;;13.99;100.00
29549;BME280;16487;53.094;8.800;2023-03-30T07:38:20;99215.47;;;13.96;100.00
29549;BME280;16487;53.094;8.800;2023-03-30T07:40:51;99199.81;;;13.62;100.00
29549;BME280;16487;53.094;8.800;2023-03-30T07:43:20;99189.13;;;13.60;100.00
29549;BME280;16487;53.094;8.800;2023-03-30T07:45:48;99197.53;;;13.60;100.00
29549;BME280;16487;53.094;8.800;2023-03-30T07:48:26;99191.00;;;13.86;100.00
29549;BME280;16487;53.094;8.800;2023-03-30T07:51:00;99187.75;;;14.04;100.00
29549;BME280;16487;53.094;8.800;2023-03-30T07:53:30;99187.88;;;14.31;100.00
29549;BME280;16487;53.094;8.800;2023-03-30T07:55:59;99188.66;;;14.54;100.00
29549;BME280;16487;53.094;8.800;2023-03-30T07:58:35;99191.75;;;14.56;100.00
29549;BME280;16487;53.094;8.800;2023-03-30T08:01:03;99197.34;;;14.67;100.00
29549;BME280;16487;53.094;8.800;2023-03-30T08:04:06;99203.47;;;14.82;100.00
29549;BME280;16487;53.094;8.800;2023-03-30T08:06:36;99198.13;;;14.73;100.00
29549;BME280;16487;53.094;8.800;2023-03-30T08:09:03;99208.03;;;14.96;100.00
29549;BME280;16487;53.094;8.800;2023-03-30T08:11:31;99207.78;;;15.00;100.00
29549;BME280;16487;53.094;8.800;2023-03-30T08:13:58;99213.38;;;15.27;100.00
29549;BME280;16487;53.094;8.800;2023-03-30T08:16:26;99228.19;;;15.33;100.00
29549;BME280;16487;53.094;8.800;2023-03-30T08:18:53;99223.59;;;15.30;100.00
29549;BME280;16487;53.094;8.800;2023-03-30T08:21:21;99227.66;;;15.29;100.00
29549;BME280;16487;53.094;8.800;2023-03-30T08:23:49;99233.56;;;15.42;100.00
29549;BME280;16487;53.094;8.800;2023-03-30T08:26:17;99248.09;;;15.35;100.00
29549;BME280;16487;53.094;8.800;2023-03-30T08:28:44;99240.19;;;15.39;100.00
29549;BME280;16487;53.094;8.800;2023-03-30T08:31:11;99260.84;;;15.31;100.00
29549;BME280;16487;53.094;8.800;2023-03-30T08:33:39;99254.47;;;15.41;100.00
29549;BME280;16487;53.094;8.800;2023-03-30T08:36:06;99251.94;;;15.43;100.00
29549;BME280;16487;53.094;8.800;2023-03-30T08:38:34;99269.78;;;15.62;100.00
29549;BME280;16487;53.094;8.800;2023-03-30T08:41:27;99269.53;;;15.33;100.00
29549;BME280;16487;53.094;8.800;2023-03-30T08:44:01;99283.59;;;15.49;100.00
29549;BME280;16487;53.094;8.800;2023-03-30T08:46:32;99296.59;;;15.41;100.00
29549;BME280;16487;53.094;8.800;2023-03-30T08:49:01;99300.41;;;15.27;100.00
29549;BME280;16487;53.094;8.800;2023-03-30T08:51:32;99307.03;;;15.24;100.00
29549;BME280;16487;53.094;8.800;2023-03-30T08:54:03;99287.13;;;15.11;100.00
29549;BME280;16487;53.094;8.800;2023-03-30T08:56:34;99270.28;;;15.00;100.00
29549;BME280;16487;53.094;8.800;2023-03-30T08:59:11;99272.09;;;15.09;100.00
29549;BME280;16487;53.094;8.800;2023-03-30T09:01:47;99273.09;;;15.00;100.00
29549;BME280;16487;53.094;8.800;2023-03-30T09:04:21;99258.56;;;15.07;100.00
29549;BME280;16487;53.094;8.800;2023-03-30T09:06:54;99285.09;;;15.06;100.00
29549;BME280;16487;53.094;8.800;2023-03-30T09:09:24;99287.63;;;15.21;100.00
29549;BME280;16487;53.094;8.800;2023-03-30T09:12:05;99303.72;;;15.15;100.00
29549;BME280;16487;53.094;8.800;2023-03-30T09:14:39;99311.91;;;15.18;100.00
29549;BME280;16487;53.094;8.800;2023-03-30T09:17:14;99319.28;;;15.21;100.00
29549;BME280;16487;53.094;8.800;2023-03-30T09:19:49;99323.94;;;15.41;100.00
29549;BME280;16487;53.094;8.800;2023-03-30T09:22:18;99358.63;;;15.43;100.00
29549;BME280;16487;53.094;8.800;2023-03-30T09:24:46;99372.41;;;15.52;100.00
29549;BME280;16487;53.094;8.800;2023-03-30T09:27:18;99402.28;;;15.72;100.00
29549;BME280;16487;53.094;8.800;2023-03-30T09:29:48;99450.03;;;15.88;100.00
29549;BME280;16487;53.094;8.800;2023-03-30T09:32:23;99423.22;;;15.98;100.00
29549;BME280;16487;53.094;8.800;2023-03-30T09:34:58;99454.91;;;16.10;100.00
29549;BME280;16487;53.094;8.800;2023-03-30T09:37:26;99441.34;;;16.20;100.00
29549;BME280;16487;53.094;8.800;2023-03-30T09:39:54;99486.06;;;16.29;100.00
29549;BME280;16487;53.094;8.800;2023-03-30T09:42:28;99499.38;;;16.17;100.00
29549;BME280;16487;53.094;8.800;2023-03-30T09:45:00;99571.66;;;16.28;100.00
29549;BME280;16487;53.094;8.800;2023-03-30T09:47:33;99602.34;;;16.31;100.00
29549;BME280;16487;53.094;8.800;2023-03-30T09:50:04;99619.25;;;16.48;100.00
29549;BME280;16487;53.094;8.800;2023-03-30T09:52:33;99680.91;;;16.51;100.00
29549;BME280;16487;53.094;8.800;2023-03-30T09:55:17;99701.00;;;16.28;100.00
29549;BME280;16487;53.094;8.800;2023-03-30T09:57:51;99705.31;;;16.18;100.00
29549;BME280;16487;53.094;8.800;2023-03-30T10:00:24;99721.44;;;16.23;100.00
29549;BME280;16487;53.094;8.800;2023-03-30T10:02:54;99743.81;;;16.59;100.00
29549;BME280;16487;53.094;8.800;2023-03-30T10:05:22;99746.25;;;16.19;100.00
29549;BME280;16487;53.094;8.800;2023-03-30T10:07:53;99810.13;;;16.99;100.00
29549;BME280;16487;53.094;8.800;2023-03-30T10:10:31;99862.13;;;17.26;100.00
29549;BME280;16487;53.094;8.800;2023-03-30T10:13:07;99961.06;;;17.94;100.00
29549;BME280;16487;53.094;8.800;2023-03-30T10:15:38;99989.50;;;17.79;100.00
29549;BME280;16487;53.094;8.800;2023-03-30T10:18:21;100007.41;;;17.54;100.00
29549;BME280;16487;53.094;8.800;2023-03-30T10:20:50;99942.09;;;16.75;100.00
29549;BME280;16487;53.094;8.800;2023-03-30T10:23:19;99903.22;;;16.79;100.00
29549;BME280;16487;53.094;8.800;2023-03-30T10:25:47;99947.63;;;17.28;100.00
29549;BME280;16487;53.094;8.800;2023-03-30T10:28:18;100003.81;;;17.48;100.00
29549;BME280;16487;53.094;8.800;2023-03-30T10:30:50;99956.69;;;16.79;100.00
29549;BME280;16487;53.094;8.800;2023-03-30T10:33:18;99932.38;;;16.34;100.00
29549;BME280;16487;53.094;8.800;2023-03-30T10:35:49;99928.47;;;15.83;100.00
29549;BME280;16487;53.094;8.800;2023-03-30T10:38:18;99910.97;;;15.68;100.00
29549;BME280;16487;53.094;8.800;2023-03-30T10:40:51;99845.28;;;15.35;100.00
29549;BME280;16487;53.094;8.800;2023-03-30T10:43:27;99470.50;;;14.13;100.00
29549;BME280;16487;53.094;8.800;2023-03-30T10:45:57;99294.53;;;13.69;100.00
29549;BME280;16487;53.094;8.800;2023-03-30T10:48:54;99291.00;;;13.37;100.00
29549;BME280;16487;53.094;8.800;2023-03-30T10:51:32;99256.81;;;13.22;100.00
29549;BME280;16487;53.094;8.800;2023-03-30T10:54:07;99254.63;;;13.37;100.00
29549;BME280;16487;53.094;8.800;2023-03-30T10:56:40;99242.47;;;13.46;100.00
29549;BME280;16487;53.094;8.800;2023-03-30T10:59:22;99238.53;;;13.69;100.00
29549;BME280;16487;53.094;8.800;2023-03-30T11:01:59;99249.06;;;13.91;100.00
29549;BME280;16487;53.094;8.800;2023-03-30T11:04:34;99281.78;;;14.16;100.00
29549;BME280;16487;53.094;8.800;2023-03-30T11:07:09;99286.47;;;14.41;100.00
29549;BME280;16487;53.094;8.800;2023-03-30T11:09:39;99306.53;;;15.64;100.00
29549;BME280;16487;53.094;8.800;2023-03-30T11:12:12;99383.59;;;15.30;100.00
29549;BME280;16487;53.094;8.800;2023-03-30T11:14:46;99429.00;;;15.34;100.00
29549;BME280;16487;53.094;8.800;2023-03-30T11:17:20;99441.75;;;15.13;100.00
29549;BME280;16487;53.094;8.800;2023-03-30T11:19:53;99574.16;;;15.17;100.00
29549;BME280;16487;53.094;8.800;2023-03-30T11:22:25;99621.16;;;15.75;100.00
29549;BME280;16487;53.094;8.800;2023-03-30T11:25:00;99686.00;;;16.69;100.00
29549;BME280;16487;53.094;8.800;2023-03-30T11:27:32;99936.50;;;16.86;100.00
29549;BME280;16487;53.094;8.800;2023-03-30T11:30:08;100003.69;;;16.62;100.00
29549;BME280;16487;53.094;8.800;2023-03-30T11:32:41;100030.53;;;17.10;100.00
29549;BME280;16487;53.094;8.800;2023-03-30T11:35:13;99987.88;;;16.02;100.00
29549;BME280;16487;53.094;8.800;2023-03-30T11:37:48;99933.00;;;15.24;100.00
29549;BME280;16487;53.094;8.800;2023-03-30T11:40:21;99901.94;;;15.08;100.00
29549;BME280;16487;53.094;8.800;2023-03-30T11:42:53;99896.16;;;14.91;100.00
29549;BME280;16487;53.094;8.800;2023-03-30T11:45:37;99892.16;;;14.77;100.00
29549;BME280;16487;53.094;8.800;2023-03-30T11:51:12;99912.03;;;14.54;100.00
29549;BME280;16487;53.094;8.800;2023-03-30T11:53:50;99902.50;;;14.66;100.00
29549;BME280;16487;53.094;8.800;2023-03-30T11:56:25;99896.56;;;14.84;100.00
29549;BME280;16487;53.094;8.800;2023-03-30T11:59:02;99921.34;;;14.85;100.00
29549;BME280;16487;53.094;8.800;2023-03-30T12:01:46;99911.31;;;14.79;100.00
29549;BME280;16487;53.094;8.800;2023-03-30T12:04:24;99908.22;;;14.77;100.00
29549;BME280;16487;53.094;8.800;2023-03-30T12:06:55;99908.09;;;14.66;100.00
29549;BME280;16487;53.094;8.800;2023-03-30T12:09:25;99900.13;;;14.59;100.00
29549;BME280;16487;53.094;8.800;2023-03-30T12:12:01;99923.16;;;14.68;100.00
29549;BME280;16487;53.094;8.800;2023-03-30T12:14:36;99967.53;;;15.56;100.00
29549;BME280;16487;53.094;8.800;2023-03-30T12:17:13;99996.81;;;16.00;100.00
29549;BME280;16487;53.094;8.800;2023-03-30T12:19:47;100011.47;;;15.84;100.00
29549;BME280;16487;53.094;8.800;2023-03-30T12:22:29;100011.72;;;15.55;100.00
29549;BME280;16487;53.094;8.800;2023-03-30T12:25:05;100018.19;;;15.21;100.00
29549;BME280;16487;53.094;8.800;2023-03-30T12:27:51;100002.91;;;15.02;100.00
29549;BME280;16487;53.094;8.800;2023-03-30T12:30:25;99979.63;;;14.76;100.00
29549;BME280;16487;53.094;8.800;2023-03-30T12:32:59;100058.97;;;14.62;100.00
29549;BME280;16487;53.094;8.800;2023-03-30T12:36:01;100066.28;;;14.25;100.00
29549;BME280;16487;53.094;8.800;2023-03-30T12:38:36;100058.81;;;14.22;100.00
29549;BME280;16487;53.094;8.800;2023-03-30T12:41:08;100036.03;;;14.29;100.00
29549;BME280;16487;53.094;8.800;2023-03-30T12:43:45;100038.72;;;14.38;100.00
29549;BME280;16487;53.094;8.800;2023-03-30T12:46:16;100083.72;;;14.98;100.00
29549;BME280;16487;53.094;8.800;2023-03-30T12:48:55;100145.53;;;16.24;100.00
29549;BME280;16487;53.094;8.800;2023-03-30T12:51:36;100248.22;;;16.91;100.00
29549;BME280;16487;53.094;8.800;2023-03-30T12:54:28;100368.88;;;19.09;100.00
29549;BME280;16487;53.094;8.800;2023-03-30T12:57:01;100429.84;;;19.38;100.00
29549;BME280;16487;53.094;8.800;2023-03-30T13:00:00;100442.22;;;19.73;100.00
29549;BME280;16487;53.094;8.800;2023-03-30T13:02:41;100441.28;;;19.01;100.00
29549;BME280;16487;53.094;8.800;2023-03-30T13:05:21;100461.56;;;17.53;100.00
29549;BME280;16487;53.094;8.800;2023-03-30T13:07:52;100434.91;;;17.28;100.00
29549;BME280;16487;53.094;8.800;2023-03-30T13:10:39;100429.09;;;16.66;100.00
29549;BME280;16487;53.094;8.800;2023-03-30T13:13:16;100430.72;;;17.18;100.00
29549;BME280;16487;53.094;8.800;2023-03-30T13:15:50;100424.31;;;16.52;100.00
29549;BME280;16487;53.094;8.800;2023-03-30T13:18:30;100438.09;;;16.50;100.00
29549;BME280;16487;53.094;8.800;2023-03-30T13:21:16;100416.00;;;16.08;100.00
29549;BME280;16487;53.094;8.800;2023-03-30T13:23:58;100414.91;;;15.85;100.00
29549;BME280;16487;53.094;8.800;2023-03-30T13:26:38;100408.59;;;15.76;100.00
29549;BME280;16487;53.094;8.800;2023-03-30T13:29:08;100419.34;;;15.77;100.00
29549;BME280;16487;53.094;8.800;2023-03-30T13:31:59;100411.22;;;15.79;100.00
29549;BME280;16487;53.094;8.800;2023-03-30T13:34:38;100419.94;;;15.81;100.00
29549;BME280;16487;53.094;8.800;2023-03-30T13:37:33;100401.84;;;15.82;100.00